Current Weather

Fullerton Muni

Fullerton, California (KFUL)

Report from: Sunday, February 25, 2024 1:53 PM PST
Current time: Sunday, February 25, 2024 2:15 PM PST

Nearby weather – Weather history – Daily summaries
Weather forecast

Temperature20.0°C (68.0°F)
Dew point10.6°C (51.1°F)
Winds Calm
Visibility10 mi. (16.1 km)
Clouds Sky clear
Altimeter30.02 in.Hg (1017 mB)
Relative humidity55 %
Density altitude660 ft. (201 m)
Sea-level pressure101.6 kPa (1016 mB, 30.01 in.Hg)
Remarks Automated weather observing station with precipitation discriminator
Flight conditions Visual Meteorological Conditions
Raw dataKFUL 252153Z 00000KT 10SM CLR 20/11 A3002 RMK AO2 SLP164 T02000106
An error has occurred. This application may no longer respond until reloaded. Reload 🗙